East Windsor, Massachusetts
Current Conditions -  °F | °C
As of 4:54 AM on Wednesday 22 Oct 2014 (Local Time) from KPSF Reporting Station
Overcast Overcast  
Wind Chill: 45°   Ceiling: 900
Heat Index: 49°   Visibility: 10mi
Dew Point: 47°   Wind: 10mph
Humidity: 93%   Direction: 50°NE
Pressure: 29.98"   Gusts: NA
Location:  42.5137°N, 73.043°W
Report Text: KPSF 220854Z AUTO 05009KT 10SM OVC009 09/08 A2998 RMK AO2 RAB02E33 SLP146 P0001 60001 T00940083 53004
Loading
Personal Weather Stations






























Interactive Weather Map
Tropical Storm Tracking
New forecast layout! Learn more

10-Day Weather Forecast

Advertisements
Track Severe Weather on mobile